Time;durP1;ratioP1;P1;durP2;ratioP2;P2;SDS_P1;SDS_P2;PMS_P1;PMS_P2;Temp;Humidity;BMP_temperature;BMP_pressure;BME280_temperature;BME280_humidity;BME280_pressure;Samples;Min_cycle;Max_cycle;Signal;HPM_P1;HPM_P2
2023/03/06 00:00:58;;;;;;;7.22;4.60;;;7.10;98.90;;;;;;5061046;28;20089;-78
2023/03/06 00:03:26;;;;;;;7.55;4.57;;;7.10;98.70;;;;;;5079483;28;20052;-77
2023/03/06 00:05:56;;;;;;;7.80;4.57;;;7.00;98.00;;;;;;5079168;28;20020;-78
2023/03/06 00:08:22;;;;;;;7.40;4.85;;;7.00;98.10;;;;;;5061210;28;20032;-77
2023/03/06 00:10:47;;;;;;;6.97;4.45;;;7.00;98.60;;;;;;5078892;28;20107;-77
2023/03/06 00:13:17;;;;;;;7.70;4.53;;;7.00;98.30;;;;;;5079094;28;20060;-77
2023/03/06 00:15:43;;;;;;;6.50;4.15;;;7.00;98.60;;;;;;5077455;28;20032;-76
2023/03/06 00:18:09;;;;;;;5.82;4.00;;;7.00;98.90;;;;;;5079116;28;20082;-76
2023/03/06 00:20:37;;;;;;;7.38;4.72;;;7.10;98.90;;;;;;5095736;28;20020;-76
2023/03/06 00:23:03;;;;;;;7.65;4.80;;;7.10;98.60;;;;;;5079611;28;20130;-76
2023/03/06 00:25:28;;;;;;;7.25;4.30;;;7.10;98.50;;;;;;5078265;28;20055;-76
2023/03/06 00:28:00;;;;;;;6.32;3.95;;;7.10;98.30;;;;;;5078810;28;20484;-80
2023/03/06 00:30:26;;;;;;;7.25;4.15;;;7.10;97.80;;;;;;5060558;28;20047;-79
2023/03/06 00:32:52;;;;;;;6.47;4.18;;;7.10;98.00;;;;;;5076631;28;20476;-79
2023/03/06 00:35:23;;;;;;;6.40;3.88;;;7.10;98.00;;;;;;5078552;28;20021;-79
2023/03/06 00:38:13;;;;;;;7.28;4.57;;;7.00;98.20;;;;;;5060567;28;20020;-80
2023/03/06 00:40:39;;;;;;;10.00;5.07;;;7.00;97.50;;;;;;5078344;28;20035;-80
2023/03/06 00:43:04;;;;;;;8.32;4.65;;;7.00;97.90;;;;;;5060772;28;20388;-80
2023/03/06 00:45:30;;;;;;;6.65;4.35;;;6.90;98.30;;;;;;5060367;28;20025;-79
2023/03/06 00:47:56;;;;;;;6.13;4.05;;;7.00;98.70;;;;;;5067116;28;20020;-80
2023/03/06 00:50:21;;;;;;;7.30;4.50;;;7.00;98.50;;;;;;5085432;28;20040;-77
2023/03/06 00:52:47;;;;;;;8.25;4.07;;;7.00;98.20;;;;;;5078246;28;20025;-76
2023/03/06 00:55:13;;;;;;;7.95;4.55;;;7.10;98.10;;;;;;5078047;28;20064;-77
2023/03/06 00:57:39;;;;;;;6.18;4.28;;;7.00;97.80;;;;;;5063488;28;20086;-76
2023/03/06 01:00:06;;;;;;;7.25;4.32;;;7.00;97.70;;;;;;5062353;28;20760;-76
2023/03/06 01:02:32;;;;;;;6.90;4.20;;;6.90;97.80;;;;;;5077838;28;20036;-76
2023/03/06 01:04:57;;;;;;;6.70;4.10;;;7.00;98.20;;;;;;5071134;28;20459;-78
2023/03/06 01:07:26;;;;;;;7.05;4.18;;;7.00;98.20;;;;;;5047201;28;20382;-78
2023/03/06 01:09:51;;;;;;;7.72;4.65;;;7.00;98.30;;;;;;5076475;28;20020;-79
2023/03/06 01:12:17;;;;;;;6.82;4.05;;;7.00;98.30;;;;;;5080497;28;20028;-79
2023/03/06 01:14:43;;;;;;;7.72;4.63;;;7.00;97.80;;;;;;5063000;28;20027;-78
2023/03/06 01:17:09;;;;;;;7.50;4.40;;;7.00;98.20;;;;;;5081147;28;20021;-78
2023/03/06 01:19:35;;;;;;;8.20;4.32;;;7.00;98.20;;;;;;5059907;28;20021;-77
2023/03/06 01:22:00;;;;;;;7.97;4.60;;;7.00;97.80;;;;;;5077442;28;20463;-77
2023/03/06 01:24:27;;;;;;;6.93;4.07;;;7.00;97.70;;;;;;5080290;28;20052;-77
2023/03/06 01:26:53;;;;;;;9.38;4.38;;;6.90;97.90;;;;;;5075190;28;20052;-77
2023/03/06 01:29:19;;;;;;;7.57;4.50;;;6.90;97.80;;;;;;5073187;28;20051;-79
2023/03/06 01:31:45;;;;;;;7.70;4.32;;;6.80;96.80;;;;;;5074556;28;20461;-79
2023/03/06 01:34:11;;;;;;;8.38;4.50;;;6.70;97.00;;;;;;5079540;28;20028;-77
2023/03/06 01:36:36;;;;;;;9.25;5.50;;;6.70;97.40;;;;;;5078111;28;20035;-77
2023/03/06 01:39:02;;;;;;;8.30;5.60;;;6.60;97.30;;;;;;5079713;28;20040;-77
2023/03/06 01:41:28;;;;;;;10.77;5.75;;;6.60;97.40;;;;;;5096756;28;20016;-75
2023/03/06 01:43:54;;;;;;;9.48;5.82;;;6.60;98.10;;;;;;5096711;28;20480;-76
2023/03/06 01:46:29;;;;;;;12.68;6.63;;;6.60;98.10;;;;;;5096561;28;20036;-76
2023/03/06 01:49:01;;;;;;;10.63;6.00;;;6.50;97.40;;;;;;5085010;28;20103;-77
2023/03/06 01:51:44;;;;;;;7.93;4.97;;;6.40;98.10;;;;;;5089731;28;20034;-77
2023/03/06 01:54:24;;;;;;;8.57;5.20;;;6.50;98.00;;;;;;5077223;28;20024;-76
2023/03/06 01:56:55;;;;;;;10.57;5.60;;;6.60;98.50;;;;;;5077430;28;20033;-76
2023/03/06 01:59:22;;;;;;;9.52;5.70;;;6.60;98.00;;;;;;5077420;28;20032;-76
2023/03/06 02:01:49;;;;;;;9.05;5.55;;;6.50;98.00;;;;;;5077232;28;20024;-77
2023/03/06 02:04:16;;;;;;;9.85;5.70;;;6.40;98.40;;;;;;5058237;28;20052;-76
2023/03/06 02:06:42;;;;;;;8.82;4.93;;;6.40;98.20;;;;;;5077054;28;20481;-77
2023/03/06 02:09:10;;;;;;;9.50;5.45;;;6.40;98.30;;;;;;5059214;28;20124;-77
2023/03/06 02:11:35;;;;;;;10.60;5.90;;;6.30;98.30;;;;;;5076645;28;20025;-77
2023/03/06 02:14:01;;;;;;;9.75;6.43;;;6.30;98.70;;;;;;5062619;28;20485;-76
2023/03/06 02:16:30;;;;;;;10.70;6.25;;;6.30;98.50;;;;;;5082122;28;20504;-76
2023/03/06 02:18:59;;;;;;;10.13;5.45;;;6.30;98.80;;;;;;5077143;28;20091;-76
2023/03/06 02:21:30;;;;;;;8.73;5.63;;;6.30;99.20;;;;;;5059085;28;20037;-76
2023/03/06 02:24:19;;;;;;;9.90;6.07;;;6.40;99.10;;;;;;5065205;28;20116;-77
2023/03/06 02:26:46;;;;;;;7.15;4.57;;;6.40;98.60;;;;;;5061593;28;20029;-78
2023/03/06 02:29:18;;;;;;;10.88;5.85;;;6.40;99.60;;;;;;5057470;28;20074;-78
2023/03/06 02:31:46;;;;;;;10.95;5.85;;;6.50;99.60;;;;;;5043961;28;20036;-79
2023/03/06 02:34:14;;;;;;;8.65;4.95;;;6.40;99.60;;;;;;5057599;28;20028;-79
2023/03/06 02:36:47;;;;;;;9.25;6.05;;;6.50;99.90;;;;;;5072685;28;20052;-79
2023/03/06 02:39:14;;;;;;;10.05;6.28;;;6.40;99.20;;;;;;5051268;28;20028;-78
2023/03/06 02:41:40;;;;;;;11.60;6.47;;;6.40;99.70;;;;;;5064637;28;20106;-78
2023/03/06 02:44:05;;;;;;;9.57;5.88;;;6.30;99.90;;;;;;5066268;28;20028;-78
2023/03/06 02:46:33;;;;;;;11.55;5.78;;;6.30;99.90;;;;;;5092864;28;20024;-79
2023/03/06 02:48:59;;;;;;;9.55;6.00;;;6.40;99.90;;;;;;5076931;28;20036;-78
2023/03/06 02:51:25;;;;;;;11.27;6.72;;;6.40;99.90;;;;;;5076600;28;20025;-77
2023/03/06 02:53:50;;;;;;;9.90;6.00;;;6.30;99.90;;;;;;5076791;28;20092;-77
2023/03/06 02:56:16;;;;;;;12.73;6.57;;;6.30;99.90;;;;;;5076527;28;20032;-78
2023/03/06 02:58:42;;;;;;;11.15;6.50;;;6.20;99.90;;;;;;5058820;28;20032;-78
2023/03/06 03:01:07;;;;;;;13.57;7.32;;;6.20;99.90;;;;;;5058446;28;20123;-78
2023/03/06 03:03:33;;;;;;;9.50;6.03;;;6.30;99.90;;;;;;5058776;28;20036;-78
2023/03/06 03:06:00;;;;;;;10.18;5.82;;;6.20;99.90;;;;;;5075950;28;20096;-78
2023/03/06 03:08:27;;;;;;;10.48;5.93;;;6.20;99.90;;;;;;5058528;28;20032;-78
2023/03/06 03:10:55;;;;;;;8.88;5.63;;;6.20;99.90;;;;;;5076123;28;20075;-77
2023/03/06 03:13:20;;;;;;;9.75;5.68;;;6.30;99.90;;;;;;5058393;28;20592;-78
2023/03/06 03:15:57;;;;;;;10.65;6.13;;;6.20;99.90;;;;;;5076017;28;20064;-78
2023/03/06 03:18:23;;;;;;;9.38;5.45;;;6.20;99.90;;;;;;5061622;28;20453;-78
2023/03/06 03:20:48;;;;;;;11.05;6.53;;;6.10;99.90;;;;;;5069178;28;20029;-76
2023/03/06 03:23:14;;;;;;;9.98;5.72;;;6.10;99.90;;;;;;5079983;28;20044;-76
2023/03/06 03:25:40;;;;;;;10.00;6.20;;;6.00;99.90;;;;;;5079914;28;20021;-75
2023/03/06 03:28:05;;;;;;;10.32;5.57;;;6.00;99.90;;;;;;5065369;28;20029;-78
2023/03/06 03:30:31;;;;;;;9.85;5.78;;;5.90;99.90;;;;;;5078916;28;20032;-78
2023/03/06 03:32:56;;;;;;;8.80;5.00;;;6.00;99.90;;;;;;5079617;28;20037;-78
2023/03/06 03:35:22;;;;;;;10.05;5.93;;;6.00;99.90;;;;;;5096925;28;20384;-75
2023/03/06 03:37:48;;;;;;;11.32;5.95;;;6.10;99.90;;;;;;5068109;28;20392;-76
2023/03/06 03:40:13;;;;;;;10.95;6.22;;;6.10;99.90;;;;;;5079769;28;20020;-76
2023/03/06 03:42:39;;;;;;;10.63;6.70;;;6.00;99.90;;;;;;5062148;28;20021;-77
2023/03/06 03:45:05;;;;;;;9.43;6.63;;;5.90;99.90;;;;;;5061394;28;20024;-78
2023/03/06 03:47:31;;;;;;;9.52;5.43;;;5.90;99.90;;;;;;5079423;28;20025;-78
2023/03/06 03:49:56;;;;;;;11.32;6.38;;;6.00;99.90;;;;;;5065637;28;20044;-77
2023/03/06 03:52:22;;;;;;;9.45;5.05;;;6.10;99.90;;;;;;5081319;28;20401;-77
2023/03/06 03:54:48;;;;;;;8.55;5.70;;;6.00;99.90;;;;;;5078607;28;20404;-77
2023/03/06 03:57:13;;;;;;;10.07;5.40;;;6.00;99.90;;;;;;5066206;28;20055;-77
2023/03/06 03:59:39;;;;;;;9.38;5.75;;;6.10;99.90;;;;;;5098344;28;20085;-77
2023/03/06 04:02:06;;;;;;;9.85;5.47;;;6.00;99.90;;;;;;5098546;28;20028;-76
2023/03/06 04:04:31;;;;;;;9.43;4.65;;;6.00;99.90;;;;;;5099176;28;20073;-76
2023/03/06 04:06:57;;;;;;;8.02;4.85;;;6.00;99.90;;;;;;5099423;28;20024;-76
2023/03/06 04:09:23;;;;;;;8.80;5.35;;;6.10;99.90;;;;;;5089836;28;20077;-77
2023/03/06 04:11:49;;;;;;;8.70;4.57;;;6.10;99.90;;;;;;5078904;28;20028;-77
2023/03/06 04:14:14;;;;;;;6.93;4.38;;;6.00;99.90;;;;;;5079187;28;20028;-79
2023/03/06 04:16:40;;;;;;;9.20;5.20;;;6.10;99.90;;;;;;5079223;28;20532;-79
2023/03/06 04:19:06;;;;;;;8.35;4.50;;;6.10;99.90;;;;;;5079394;28;20025;-78
2023/03/06 04:21:31;;;;;;;10.43;5.28;;;6.10;99.90;;;;;;5060850;28;20024;-78
2023/03/06 04:23:57;;;;;;;7.80;4.60;;;6.20;99.90;;;;;;5079584;28;20029;-78
2023/03/06 04:26:23;;;;;;;7.47;4.88;;;6.10;99.90;;;;;;5081244;28;20031;-79
2023/03/06 04:28:48;;;;;;;8.82;5.18;;;6.00;99.90;;;;;;5054211;28;20112;-78
2023/03/06 04:31:14;;;;;;;8.15;4.78;;;5.90;99.90;;;;;;5053930;28;20100;-78
2023/03/06 04:33:40;;;;;;;8.88;5.38;;;5.90;99.90;;;;;;5078405;28;20096;-77
2023/03/06 04:36:05;;;;;;;8.23;5.18;;;5.90;99.90;;;;;;5064358;28;20032;-77
2023/03/06 04:38:31;;;;;;;8.05;5.00;;;5.90;99.90;;;;;;5081173;28;20016;-77
2023/03/06 04:40:57;;;;;;;8.18;4.57;;;5.90;99.90;;;;;;5071243;28;20482;-76
2023/03/06 04:43:22;;;;;;;7.45;4.40;;;5.90;99.90;;;;;;5078533;28;20024;-78
2023/03/06 04:45:48;;;;;;;7.72;4.50;;;6.00;99.90;;;;;;5056522;28;20397;-76
2023/03/06 04:48:16;;;;;;;7.68;4.60;;;6.00;99.90;;;;;;5068941;28;20020;-76
2023/03/06 04:50:41;;;;;;;9.73;4.72;;;6.00;99.90;;;;;;5056744;28;20025;-77
2023/03/06 04:53:07;;;;;;;6.85;4.32;;;6.00;99.90;;;;;;5070559;28;20107;-76
2023/03/06 04:55:33;;;;;;;8.02;4.72;;;5.90;99.90;;;;;;5073447;28;20036;-77
2023/03/06 04:57:59;;;;;;;7.45;4.22;;;6.00;99.90;;;;;;5077557;28;20104;-77
2023/03/06 05:00:29;;;;;;;8.77;5.30;;;6.00;99.90;;;;;;5064528;28;20037;-77
2023/03/06 05:02:55;;;;;;;7.28;4.40;;;6.00;99.90;;;;;;5078274;28;20025;-76
2023/03/06 05:05:21;;;;;;;6.22;3.97;;;5.90;99.90;;;;;;5078215;28;20031;-79
2023/03/06 05:07:47;;;;;;;7.82;4.40;;;6.00;99.90;;;;;;5077096;28;20032;-79
2023/03/06 05:10:15;;;;;;;7.00;4.47;;;6.00;99.90;;;;;;5076901;28;20028;-79
2023/03/06 05:12:41;;;;;;;6.22;3.80;;;6.00;99.90;;;;;;5060031;28;20457;-79
2023/03/06 05:15:09;;;;;;;6.93;3.30;;;6.00;99.90;;;;;;5077899;28;20039;-80
2023/03/06 05:17:35;;;;;;;6.28;4.05;;;6.00;99.90;;;;;;5058571;28;20029;-79
2023/03/06 05:20:01;;;;;;;6.57;4.10;;;6.00;99.90;;;;;;5077900;28;20027;-78
2023/03/06 05:22:26;;;;;;;6.20;3.95;;;5.90;99.90;;;;;;5077684;28;20037;-79
2023/03/06 05:24:52;;;;;;;6.38;3.85;;;5.90;99.90;;;;;;5080311;28;20028;-77
2023/03/06 05:27:18;;;;;;;8.30;4.82;;;5.90;99.90;;;;;;5077532;28;20091;-77
2023/03/06 05:29:43;;;;;;;6.65;4.45;;;5.90;99.90;;;;;;5079592;28;20035;-77
2023/03/06 05:32:09;;;;;;;7.88;5.25;;;5.90;99.90;;;;;;5058049;28;20100;-77
2023/03/06 05:34:35;;;;;;;7.88;5.38;;;5.80;99.90;;;;;;5068126;28;20131;-77
2023/03/06 05:37:00;;;;;;;7.47;4.93;;;5.70;99.90;;;;;;5077954;28;20108;-77
2023/03/06 05:39:27;;;;;;;9.40;5.85;;;5.80;99.90;;;;;;5075762;28;20063;-77
2023/03/06 05:41:53;;;;;;;8.90;5.82;;;5.70;99.90;;;;;;5055044;28;20028;-78
2023/03/06 05:44:22;;;;;;;8.90;5.75;;;5.60;99.90;;;;;;5066728;28;20033;-80
2023/03/06 06:04:49;;;;;;;6.43;4.03;;;5.90;99.90;;;;;;4856730;29;20034;-79
2023/03/06 06:07:16;;;;;;;6.50;4.10;;;5.80;99.90;;;;;;4904810;29;20622;-80
2023/03/06 06:09:44;;;;;;;7.60;4.32;;;5.80;99.90;;;;;;5068016;28;20051;-78
2023/03/06 06:12:10;;;;;;;7.25;4.50;;;5.90;99.90;;;;;;5082378;28;20078;-78
2023/03/06 06:14:36;;;;;;;5.25;3.60;;;5.90;99.90;;;;;;5075674;28;20465;-79
2023/03/06 06:17:06;;;;;;;5.35;3.22;;;5.90;99.90;;;;;;5046465;28;20017;-81
2023/03/06 06:19:32;;;;;;;6.95;4.40;;;5.90;99.90;;;;;;5062215;28;20033;-77
2023/03/06 06:21:58;;;;;;;6.28;3.90;;;5.90;99.90;;;;;;5062044;28;20177;-77
2023/03/06 06:24:24;;;;;;;7.95;4.93;;;6.00;99.90;;;;;;5080312;28;20032;-75
2023/03/06 06:26:55;;;;;;;7.35;3.70;;;5.90;99.90;;;;;;5056705;28;20040;-78
2023/03/06 06:29:22;;;;;;;6.53;3.45;;;5.90;99.90;;;;;;5075483;28;20028;-77
2023/03/06 06:31:49;;;;;;;5.88;4.15;;;6.00;99.90;;;;;;5082791;28;20042;-81
2023/03/06 06:34:15;;;;;;;5.18;3.53;;;5.90;99.50;;;;;;5056574;28;20530;-80
2023/03/06 06:36:40;;;;;;;7.90;4.10;;;5.80;99.70;;;;;;5091327;28;20029;-80
2023/03/06 06:39:07;;;;;;;6.75;4.18;;;5.80;99.50;;;;;;5076031;28;20024;-80
2023/03/06 06:41:34;;;;;;;7.25;4.15;;;5.80;99.50;;;;;;5081890;28;20041;-80
2023/03/06 06:44:03;;;;;;;7.05;4.40;;;5.80;99.90;;;;;;5058583;28;20025;-79
2023/03/06 06:46:28;;;;;;;6.72;4.40;;;5.80;99.60;;;;;;5080311;28;20017;-81
2023/03/06 06:48:54;;;;;;;9.73;5.03;;;5.80;99.70;;;;;;5048115;28;20036;-77
2023/03/06 06:51:22;;;;;;;8.73;5.38;;;5.70;99.50;;;;;;5060226;28;20029;-77
2023/03/06 06:53:51;;;;;;;8.35;5.28;;;5.60;99.50;;;;;;5080493;28;20577;-80
2023/03/06 06:56:17;;;;;;;8.07;5.28;;;5.50;99.50;;;;;;5080606;28;20093;-80
2023/03/06 06:58:43;;;;;;;11.02;6.13;;;5.50;99.80;;;;;;5080328;28;20457;-79
2023/03/06 07:01:11;;;;;;;8.07;5.38;;;5.60;99.80;;;;;;5056797;28;20044;-77
2023/03/06 07:03:37;;;;;;;10.63;5.72;;;5.50;99.90;;;;;;5076433;28;20096;-77
2023/03/06 07:06:04;;;;;;;8.35;5.40;;;5.50;99.90;;;;;;5089853;28;20026;-79
2023/03/06 07:08:30;;;;;;;8.38;5.22;;;5.50;99.90;;;;;;5100313;28;20087;-78
2023/03/06 07:10:56;;;;;;;9.05;5.47;;;5.50;99.70;;;;;;5100447;28;20056;-78
2023/03/06 07:13:21;;;;;;;8.73;5.53;;;5.50;99.90;;;;;;5100347;28;20024;-78
2023/03/06 07:15:47;;;;;;;9.32;6.13;;;5.50;99.80;;;;;;5081960;28;20165;-78
2023/03/06 07:18:13;;;;;;;11.15;5.18;;;5.50;99.70;;;;;;5089920;28;20020;-79
2023/03/06 07:20:38;;;;;;;7.93;5.00;;;5.50;99.90;;;;;;5060919;28;20040;-80
2023/03/06 07:23:22;;;;;;;8.30;4.97;;;5.60;99.80;;;;;;5089588;28;20048;-83
2023/03/06 07:26:22;;;;;;;7.13;4.57;;;5.60;99.90;;;;;;5059150;28;20079;-83
2023/03/06 07:28:51;;;;;;;7.82;4.88;;;5.60;99.50;;;;;;5045744;28;20036;-79
2023/03/06 07:31:17;;;;;;;7.93;4.68;;;5.70;99.60;;;;;;5079659;28;20453;-79
2023/03/06 07:33:43;;;;;;;8.80;4.47;;;5.70;99.20;;;;;;5083919;28;20052;-78
2023/03/06 07:36:09;;;;;;;6.50;4.22;;;5.70;99.90;;;;;;5062013;28;20031;-78
2023/03/06 07:38:36;;;;;;;7.13;4.25;;;5.70;99.10;;;;;;5079472;28;20088;-78
2023/03/06 07:41:07;;;;;;;7.60;4.53;;;5.70;99.20;;;;;;5080328;28;20048;-80
2023/03/06 07:43:35;;;;;;;8.35;4.80;;;5.70;99.10;;;;;;5080989;28;20051;-81
2023/03/06 07:46:01;;;;;;;6.78;3.85;;;5.70;99.20;;;;;;5099478;28;20024;-78
2023/03/06 07:48:27;;;;;;;7.53;4.68;;;5.70;99.50;;;;;;5087781;28;20032;-79
2023/03/06 07:51:04;;;;;;;6.50;4.32;;;5.80;99.20;;;;;;5095120;28;20099;-77
2023/03/06 07:53:30;;;;;;;7.60;4.28;;;5.70;99.10;;;;;;5081863;28;20097;-78
2023/03/06 07:55:57;;;;;;;7.47;4.40;;;5.70;99.10;;;;;;5081527;28;20545;-77
2023/03/06 07:58:23;;;;;;;7.32;4.25;;;5.80;99.30;;;;;;5081379;28;20518;-77
2023/03/06 08:00:48;;;;;;;6.22;3.72;;;5.80;99.50;;;;;;5080578;28;20035;-79
2023/03/06 08:03:15;;;;;;;5.63;3.70;;;5.90;99.40;;;;;;5078175;28;20036;-79
2023/03/06 08:05:41;;;;;;;6.38;4.38;;;6.00;99.70;;;;;;5059934;28;20028;-78
2023/03/06 08:08:07;;;;;;;6.43;4.68;;;6.00;98.80;;;;;;5079276;28;20070;-78
2023/03/06 08:10:33;;;;;;;6.90;4.45;;;5.90;98.70;;;;;;5071297;28;20029;-78
2023/03/06 08:12:58;;;;;;;6.30;4.05;;;5.80;98.40;;;;;;5079224;28;20029;-78
2023/03/06 08:15:24;;;;;;;8.77;4.82;;;5.90;98.90;;;;;;5070794;28;20055;-78
2023/03/06 08:17:50;;;;;;;6.97;4.13;;;6.00;99.50;;;;;;5078549;28;20483;-78
2023/03/06 08:20:17;;;;;;;7.35;4.03;;;5.90;98.50;;;;;;5072555;28;20498;-79
2023/03/06 08:22:43;;;;;;;6.97;3.90;;;5.90;98.50;;;;;;5071274;28;20040;-80
2023/03/06 08:25:10;;;;;;;7.68;4.35;;;5.80;98.70;;;;;;5081007;28;20070;-79
2023/03/06 08:27:36;;;;;;;6.57;3.80;;;5.90;98.70;;;;;;5080558;28;20044;-80
2023/03/06 08:30:02;;;;;;;5.75;3.50;;;6.00;99.50;;;;;;5051514;28;20032;-80
2023/03/06 08:32:28;;;;;;;6.10;3.67;;;6.10;99.50;;;;;;5069475;28;20455;-79
2023/03/06 08:34:54;;;;;;;4.95;3.22;;;6.20;98.90;;;;;;5074098;28;20083;-80
2023/03/06 08:37:19;;;;;;;5.70;2.90;;;6.20;99.50;;;;;;5059766;28;20104;-79
2023/03/06 08:39:45;;;;;;;5.43;3.25;;;6.20;98.90;;;;;;5082128;28;20056;-79
2023/03/06 08:42:11;;;;;;;4.70;3.08;;;6.30;99.50;;;;;;5097480;28;20042;-78
2023/03/06 08:58:21;;;;;;;4.50;2.60;;;6.40;98.70;;;;;;4992014;28;20037;-75
2023/03/06 09:00:47;;;;;;;5.32;2.65;;;6.50;99.70;;;;;;5024400;28;20121;-77
2023/03/06 09:03:13;;;;;;;4.95;2.80;;;6.50;99.10;;;;;;5087583;28;20016;-73
2023/03/06 09:05:39;;;;;;;5.13;3.03;;;6.50;99.80;;;;;;5076010;28;20027;-80
2023/03/06 09:08:05;;;;;;;4.10;2.95;;;6.60;99.60;;;;;;5054048;28;20057;-78
2023/03/06 09:10:31;;;;;;;4.38;2.95;;;6.60;99.70;;;;;;5053685;28;20424;-81
2023/03/06 09:12:57;;;;;;;5.88;3.10;;;6.60;99.80;;;;;;5074412;28;20064;-74
2023/03/06 09:15:23;;;;;;;4.90;3.30;;;6.50;99.60;;;;;;5053802;28;20416;-74
2023/03/06 09:17:50;;;;;;;4.10;3.17;;;6.40;99.90;;;;;;5058893;28;20073;-75
2023/03/06 09:20:17;;;;;;;4.90;3.50;;;6.40;99.90;;;;;;5078815;28;20395;-78
2023/03/06 09:22:44;;;;;;;5.65;3.80;;;6.50;99.90;;;;;;5077543;28;20092;-79
2023/03/06 09:25:12;;;;;;;5.28;3.58;;;6.40;99.80;;;;;;5075071;28;20112;-80
2023/03/06 09:27:37;;;;;;;5.40;3.42;;;6.40;99.90;;;;;;5075884;28;20032;-80
2023/03/06 09:30:03;;;;;;;6.90;3.78;;;6.50;99.90;;;;;;5076246;28;20024;-77
2023/03/06 09:32:29;;;;;;;6.65;3.85;;;6.30;99.90;;;;;;5084036;28;20054;-83
2023/03/06 09:34:55;;;;;;;5.13;3.92;;;6.20;99.90;;;;;;5059190;28;20021;-76
2023/03/06 09:37:21;;;;;;;5.10;3.53;;;6.20;99.90;;;;;;5075407;28;20063;-78
2023/03/06 09:39:47;;;;;;;5.72;3.88;;;6.20;99.90;;;;;;5090495;28;20443;-78
2023/03/06 09:42:19;;;;;;;7.30;4.88;;;6.20;99.90;;;;;;5069139;28;20043;-82
2023/03/06 09:44:57;;;;;;;7.35;4.32;;;6.20;99.90;;;;;;5057858;28;20028;-78
2023/03/06 09:47:41;;;;;;;6.85;4.25;;;6.10;99.90;;;;;;5071593;28;20029;-80
2023/03/06 09:50:28;;;;;;;5.70;3.58;;;6.10;99.90;;;;;;5068099;28;20425;-79
2023/03/06 09:53:31;;;;;;;6.57;4.03;;;6.00;99.90;;;;;;5077445;28;20029;-80
2023/03/06 09:56:04;;;;;;;6.63;4.07;;;6.00;99.90;;;;;;5075482;28;20021;-80
2023/03/06 09:58:36;;;;;;;7.40;5.05;;;6.00;99.90;;;;;;5073127;28;20700;-80
2023/03/06 10:01:10;;;;;;;7.07;4.22;;;6.00;99.90;;;;;;5058325;28;20139;-80
2023/03/06 10:03:53;;;;;;;6.95;4.38;;;6.10;99.90;;;;;;5075922;28;20063;-84
2023/03/06 10:06:32;;;;;;;6.30;3.83;;;6.20;99.90;;;;;;5075956;28;20047;-80
2023/03/06 10:09:03;;;;;;;6.43;3.85;;;6.30;99.90;;;;;;5076145;28;20031;-80
2023/03/06 10:11:42;;;;;;;8.05;4.28;;;6.30;99.90;;;;;;5055738;28;20180;-80
2023/03/06 10:14:29;;;;;;;6.97;4.43;;;6.40;99.90;;;;;;5076125;28;20038;-79
2023/03/06 10:16:55;;;;;;;6.32;4.00;;;6.30;99.90;;;;;;5055727;28;20089;-77
2023/03/06 10:19:22;;;;;;;6.95;4.10;;;6.40;99.90;;;;;;5069104;28;20024;-79
2023/03/06 10:21:57;;;;;;;6.30;3.85;;;6.60;99.90;;;;;;5077871;28;20020;-75
2023/03/06 10:24:33;;;;;;;6.63;4.28;;;6.80;99.90;;;;;;5069023;28;20037;-75
2023/03/06 10:27:11;;;;;;;8.43;4.80;;;6.80;99.90;;;;;;5077476;28;20093;-76
2023/03/06 10:29:51;;;;;;;6.30;4.30;;;6.60;99.30;;;;;;5061681;28;20056;-76
2023/03/06 10:32:51;;;;;;;7.18;4.25;;;6.50;99.60;;;;;;5092494;28;20016;-80
2023/03/06 10:35:47;;;;;;;9.38;4.45;;;6.40;99.90;;;;;;5079149;28;20028;-83
2023/03/06 10:38:30;;;;;;;7.13;4.30;;;6.40;99.80;;;;;;5078133;28;20020;-81
2023/03/06 10:41:04;;;;;;;;;;;6.50;99.90;;;;;;5078949;28;20530;-80
2023/03/06 10:43:29;;;;;;;4.97;2.72;;;6.50;99.90;;;;;;5078578;28;19904;-81
2023/03/06 10:45:55;;;;;;;5.70;3.50;;;6.70;99.90;;;;;;5060270;28;20116;-78
2023/03/06 10:48:24;;;;;;;5.28;3.45;;;6.90;99.90;;;;;;5061604;28;20024;-75
2023/03/06 10:50:51;;;;;;;6.03;3.47;;;6.80;99.80;;;;;;5095360;28;20027;-77
2023/03/06 10:53:30;;;;;;;5.80;4.13;;;6.90;99.90;;;;;;5062366;28;20443;-76
2023/03/06 10:55:58;;;;;;;6.80;3.60;;;7.00;99.90;;;;;;5061068;28;20110;-76
2023/03/06 10:58:29;;;;;;;6.78;4.18;;;7.10;99.80;;;;;;5078592;28;20037;-76
2023/03/06 11:01:17;;;;;;;7.22;3.95;;;7.20;99.90;;;;;;5078062;28;20024;-85
2023/03/06 11:03:43;;;;;;;7.57;4.13;;;7.30;99.80;;;;;;5094819;28;20053;-82
2023/03/06 11:06:12;;;;;;;6.80;4.20;;;7.20;98.00;;;;;;5082266;28;20027;-79
2023/03/06 11:08:39;;;;;;;7.47;4.45;;;7.00;98.10;;;;;;5094935;28;20029;-82
2023/03/06 11:11:12;;;;;;;6.50;4.47;;;7.00;98.50;;;;;;5079651;28;20435;-78
2023/03/06 11:13:40;;;;;;;8.65;4.47;;;7.10;98.90;;;;;;5061724;28;20036;-84
2023/03/06 11:16:26;;;;;;;8.23;5.13;;;7.20;99.00;;;;;;5077620;28;20458;-84
2023/03/06 11:19:02;;;;;;;7.35;4.28;;;7.20;99.30;;;;;;5059499;28;20039;-82
2023/03/06 11:21:34;;;;;;;5.90;3.72;;;7.30;98.80;;;;;;5083345;28;20028;-81
2023/03/06 11:24:18;;;;;;;8.20;4.30;;;7.30;98.40;;;;;;5072813;28;20072;-83
2023/03/06 11:26:55;;;;;;;5.78;3.17;;;7.40;98.60;;;;;;5052204;28;20024;-80
2023/03/06 11:29:39;;;;;;;6.05;3.28;;;7.50;98.80;;;;;;5060651;28;20033;-81
2023/03/06 11:32:15;;;;;;;5.60;3.55;;;7.60;99.00;;;;;;5087237;28;20058;-80
2023/03/06 11:34:52;;;;;;;10.35;3.85;;;7.70;98.80;;;;;;5084312;28;20552;-76
2023/03/06 11:37:42;;;;;;;6.30;4.00;;;7.80;99.00;;;;;;5069841;28;20052;-72
2023/03/06 11:40:10;;;;;;;5.20;3.40;;;7.80;98.70;;;;;;5079345;28;20511;-71
2023/03/06 11:42:42;;;;;;;6.38;3.95;;;7.80;97.70;;;;;;5079551;28;20451;-73
2023/03/06 11:45:26;;;;;;;7.00;4.13;;;7.80;96.50;;;;;;5079445;28;20029;-74
2023/03/06 11:48:01;;;;;;;6.85;4.38;;;7.80;96.50;;;;;;5063683;28;20024;-74
2023/03/06 11:50:34;;;;;;;5.95;3.63;;;7.70;96.60;;;;;;5051505;28;20512;-78
2023/03/06 11:53:03;;;;;;;5.55;3.83;;;7.70;97.10;;;;;;5075672;28;20032;-74
2023/03/06 11:55:58;;;;;;;5.82;3.80;;;7.80;97.00;;;;;;5061376;28;20028;-73
2023/03/06 11:58:52;;;;;;;5.20;3.78;;;7.90;97.60;;;;;;5066091;28;20025;-73
2023/03/06 12:01:31;;;;;;;7.57;4.10;;;8.00;97.70;;;;;;5079205;28;20096;-72
2023/03/06 12:04:00;;;;;;;5.55;3.88;;;7.90;96.60;;;;;;5078856;28;20024;-73
2023/03/06 12:06:40;;;;;;;5.18;3.50;;;7.90;96.90;;;;;;5060908;28;20396;-71
2023/03/06 12:09:12;;;;;;;5.80;4.13;;;8.00;97.20;;;;;;5070297;28;20055;-74
2023/03/06 12:11:52;;;;;;;5.80;4.18;;;7.90;95.00;;;;;;5081521;28;20416;-75
2023/03/06 12:14:24;;;;;;;6.50;4.28;;;8.00;96.40;;;;;;5060486;28;20412;-74
2023/03/06 12:17:13;;;;;;;6.30;3.75;;;7.90;95.30;;;;;;5047353;28;20028;-76
2023/03/06 12:19:44;;;;;;;5.53;3.90;;;8.00;96.10;;;;;;5060232;28;20024;-77
2023/03/06 12:22:32;;;;;;;6.20;4.22;;;8.00;94.80;;;;;;5076650;28;20089;-75
2023/03/06 12:25:29;;;;;;;6.53;4.22;;;8.10;96.70;;;;;;5076113;28;20029;-75
2023/03/06 12:28:16;;;;;;;7.00;3.80;;;8.20;96.50;;;;;;5060283;28;20028;-74
2023/03/06 12:31:11;;;;;;;6.13;3.88;;;8.20;94.80;;;;;;5078068;28;20052;-75
2023/03/06 12:34:00;;;;;;;6.18;3.58;;;8.10;93.50;;;;;;5086946;28;20052;-74
2023/03/06 12:36:41;;;;;;;5.13;3.10;;;8.10;92.50;;;;;;5060354;28;20039;-73
2023/03/06 12:39:27;;;;;;;6.03;3.40;;;8.20;95.30;;;;;;5059903;28;20028;-75
2023/03/06 12:42:04;;;;;;;4.57;3.08;;;8.30;93.80;;;;;;5078084;28;20020;-74
2023/03/06 12:44:49;;;;;;;5.07;3.35;;;8.40;94.80;;;;;;5076974;28;20056;-73
2023/03/06 12:47:19;;;;;;;6.22;3.63;;;8.60;95.00;;;;;;5077942;28;20032;-73
2023/03/06 12:49:55;;;;;;;5.90;3.38;;;8.70;94.10;;;;;;5077529;28;20028;-72
2023/03/06 12:52:30;;;;;;;5.65;3.47;;;8.70;94.30;;;;;;5077708;28;20477;-75
2023/03/06 12:55:04;;;;;;;5.85;3.17;;;8.70;93.10;;;;;;5076502;28;20416;-72
2023/03/06 12:57:29;;;;;;;5.80;3.75;;;8.60;93.10;;;;;;5077774;28;20032;-73
2023/03/06 12:59:55;;;;;;;6.70;3.60;;;8.60;91.80;;;;;;5077824;28;20031;-73
2023/03/06 13:02:24;;;;;;;5.32;3.28;;;8.70;92.40;;;;;;5078066;28;20070;-70
2023/03/06 13:05:09;;;;;;;4.95;3.20;;;8.80;93.40;;;;;;5078358;28;20020;-69
2023/03/06 13:08:13;;;;;;;5.30;3.28;;;8.80;92.80;;;;;;5059889;28;20080;-69
2023/03/06 13:10:40;;;;;;;;;;;8.80;92.90;;;;;;5037806;28;20054;-69
2023/03/06 13:13:32;;;;;;;4.57;2.88;;;8.80;92.40;;;;;;5080280;28;19904;-69
2023/03/06 13:16:10;;;;;;;5.38;2.97;;;8.70;91.30;;;;;;5098198;28;20024;-69
2023/03/06 13:18:38;;;;;;;4.93;2.60;;;8.70;92.00;;;;;;5097998;28;20024;-69
2023/03/06 13:21:04;;;;;;;4.40;2.83;;;8.70;90.40;;;;;;5087461;28;20024;-69
2023/03/06 13:23:32;;;;;;;5.35;3.47;;;8.80;90.30;;;;;;5098014;28;20048;-69
2023/03/06 13:26:30;;;;;;;4.15;2.97;;;8.80;90.90;;;;;;5098063;28;20027;-74
2023/03/06 13:28:57;;;;;;;3.97;2.55;;;8.80;91.60;;;;;;5091441;28;20032;-74
2023/03/06 13:31:27;;;;;;;4.65;3.10;;;8.90;90.60;;;;;;5089989;28;20024;-73
2023/03/06 13:34:02;;;;;;;4.85;3.15;;;9.00;91.70;;;;;;5086025;28;20049;-80
2023/03/06 13:36:35;;;;;;;5.05;3.30;;;8.90;90.50;;;;;;5097361;28;20028;-83
2023/03/06 13:39:07;;;;;;;5.47;3.20;;;8.90;90.20;;;;;;5072147;28;20028;-84
2023/03/06 13:41:36;;;;;;;5.53;3.58;;;8.90;91.70;;;;;;5095577;28;20027;-77